sensor_id;sensor_type;location;lat;lon;timestamp;P1;durP1;ratioP1;P2;durP2;ratioP2
9597;SDS011;4837;50.890;4.724;2023-08-08T00:02:14;4.75;;;2.50;;
9597;SDS011;4837;50.890;4.724;2023-08-08T00:04:40;5.47;;;2.58;;
9597;SDS011;4837;50.890;4.724;2023-08-08T00:07:06;3.72;;;2.30;;
9597;SDS011;4837;50.890;4.724;2023-08-08T00:09:33;4.85;;;2.13;;
9597;SDS011;4837;50.890;4.724;2023-08-08T00:11:59;3.55;;;2.33;;
9597;SDS011;4837;50.890;4.724;2023-08-08T00:14:25;6.68;;;2.75;;
9597;SDS011;4837;50.890;4.724;2023-08-08T00:16:51;6.97;;;2.70;;
9597;SDS011;4837;50.890;4.724;2023-08-08T00:19:17;6.20;;;2.60;;
9597;SDS011;4837;50.890;4.724;2023-08-08T00:21:43;5.35;;;2.30;;
9597;SDS011;4837;50.890;4.724;2023-08-08T00:24:09;8.48;;;2.60;;
9597;SDS011;4837;50.890;4.724;2023-08-08T00:26:35;4.68;;;2.35;;
9597;SDS011;4837;50.890;4.724;2023-08-08T00:29:01;4.25;;;2.35;;
9597;SDS011;4837;50.890;4.724;2023-08-08T00:31:28;5.35;;;2.30;;
9597;SDS011;4837;50.890;4.724;2023-08-08T00:33:54;5.05;;;2.38;;
9597;SDS011;4837;50.890;4.724;2023-08-08T00:36:20;5.88;;;2.42;;
9597;SDS011;4837;50.890;4.724;2023-08-08T00:38:46;7.05;;;2.30;;
9597;SDS011;4837;50.890;4.724;2023-08-08T00:41:13;5.55;;;2.22;;
9597;SDS011;4837;50.890;4.724;2023-08-08T00:43:39;5.45;;;2.60;;
9597;SDS011;4837;50.890;4.724;2023-08-08T00:46:05;5.90;;;2.67;;
9597;SDS011;4837;50.890;4.724;2023-08-08T00:48:32;6.25;;;2.40;;
9597;SDS011;4837;50.890;4.724;2023-08-08T00:50:58;5.32;;;2.95;;
9597;SDS011;4837;50.890;4.724;2023-08-08T00:53:25;5.55;;;2.55;;
9597;SDS011;4837;50.890;4.724;2023-08-08T00:55:53;7.57;;;2.55;;
9597;SDS011;4837;50.890;4.724;2023-08-08T00:58:20;8.30;;;2.90;;
9597;SDS011;4837;50.890;4.724;2023-08-08T01:00:46;7.03;;;2.92;;
9597;SDS011;4837;50.890;4.724;2023-08-08T01:03:12;4.20;;;2.35;;
9597;SDS011;4837;50.890;4.724;2023-08-08T01:05:42;6.55;;;2.92;;
9597;SDS011;4837;50.890;4.724;2023-08-08T01:08:09;3.65;;;2.45;;
9597;SDS011;4837;50.890;4.724;2023-08-08T01:10:38;8.77;;;3.05;;
9597;SDS011;4837;50.890;4.724;2023-08-08T01:13:15;7.63;;;2.60;;
9597;SDS011;4837;50.890;4.724;2023-08-08T01:15:43;6.18;;;2.90;;
9597;SDS011;4837;50.890;4.724;2023-08-08T01:18:10;7.90;;;3.30;;
9597;SDS011;4837;50.890;4.724;2023-08-08T01:20:37;8.38;;;2.95;;
9597;SDS011;4837;50.890;4.724;2023-08-08T01:25:39;8.93;;;3.03;;
9597;SDS011;4837;50.890;4.724;2023-08-08T01:28:06;8.93;;;2.83;;
9597;SDS011;4837;50.890;4.724;2023-08-08T01:30:32;6.53;;;3.08;;
9597;SDS011;4837;50.890;4.724;2023-08-08T01:32:58;8.23;;;3.22;;
9597;SDS011;4837;50.890;4.724;2023-08-08T01:35:26;5.95;;;2.67;;
9597;SDS011;4837;50.890;4.724;2023-08-08T01:38:02;8.38;;;2.95;;
9597;SDS011;4837;50.890;4.724;2023-08-08T01:40:31;11.05;;;3.28;;
9597;SDS011;4837;50.890;4.724;2023-08-08T01:42:57;9.20;;;3.20;;
9597;SDS011;4837;50.890;4.724;2023-08-08T01:45:24;10.10;;;3.17;;
9597;SDS011;4837;50.890;4.724;2023-08-08T01:47:50;6.85;;;2.95;;
9597;SDS011;4837;50.890;4.724;2023-08-08T01:50:17;6.47;;;3.28;;
9597;SDS011;4837;50.890;4.724;2023-08-08T01:52:43;6.07;;;3.00;;
9597;SDS011;4837;50.890;4.724;2023-08-08T01:55:09;8.98;;;3.45;;
9597;SDS011;4837;50.890;4.724;2023-08-08T01:57:35;10.93;;;3.45;;
9597;SDS011;4837;50.890;4.724;2023-08-08T02:00:01;7.70;;;2.97;;
9597;SDS011;4837;50.890;4.724;2023-08-08T02:02:29;10.13;;;3.40;;
9597;SDS011;4837;50.890;4.724;2023-08-08T02:04:55;7.78;;;3.45;;
9597;SDS011;4837;50.890;4.724;2023-08-08T02:07:21;8.55;;;3.22;;
9597;SDS011;4837;50.890;4.724;2023-08-08T02:09:47;8.48;;;3.65;;
9597;SDS011;4837;50.890;4.724;2023-08-08T02:12:16;7.80;;;3.40;;
9597;SDS011;4837;50.890;4.724;2023-08-08T02:14:42;10.60;;;3.67;;
9597;SDS011;4837;50.890;4.724;2023-08-08T02:17:08;10.07;;;3.70;;
9597;SDS011;4837;50.890;4.724;2023-08-08T02:19:34;9.25;;;3.60;;
9597;SDS011;4837;50.890;4.724;2023-08-08T02:22:00;7.25;;;3.30;;
9597;SDS011;4837;50.890;4.724;2023-08-08T02:24:26;7.43;;;3.17;;
9597;SDS011;4837;50.890;4.724;2023-08-08T02:26:52;10.50;;;3.28;;
9597;SDS011;4837;50.890;4.724;2023-08-08T02:29:18;11.18;;;3.78;;
9597;SDS011;4837;50.890;4.724;2023-08-08T02:31:44;11.30;;;4.10;;
9597;SDS011;4837;50.890;4.724;2023-08-08T02:34:10;7.95;;;3.20;;
9597;SDS011;4837;50.890;4.724;2023-08-08T02:36:37;7.75;;;3.67;;
9597;SDS011;4837;50.890;4.724;2023-08-08T02:39:03;8.50;;;3.05;;
9597;SDS011;4837;50.890;4.724;2023-08-08T02:41:29;9.48;;;3.85;;
9597;SDS011;4837;50.890;4.724;2023-08-08T02:43:55;10.02;;;3.38;;
9597;SDS011;4837;50.890;4.724;2023-08-08T02:46:21;10.05;;;3.03;;
9597;SDS011;4837;50.890;4.724;2023-08-08T02:48:47;11.20;;;3.88;;
9597;SDS011;4837;50.890;4.724;2023-08-08T02:51:13;9.07;;;3.58;;
9597;SDS011;4837;50.890;4.724;2023-08-08T02:53:39;13.23;;;3.58;;
9597;SDS011;4837;50.890;4.724;2023-08-08T02:56:05;10.32;;;4.15;;
9597;SDS011;4837;50.890;4.724;2023-08-08T02:58:31;11.45;;;4.18;;
9597;SDS011;4837;50.890;4.724;2023-08-08T03:00:57;6.82;;;3.33;;
9597;SDS011;4837;50.890;4.724;2023-08-08T03:03:23;7.90;;;3.60;;
9597;SDS011;4837;50.890;4.724;2023-08-08T03:05:49;11.10;;;3.45;;
9597;SDS011;4837;50.890;4.724;2023-08-08T03:08:15;8.88;;;3.33;;
9597;SDS011;4837;50.890;4.724;2023-08-08T03:10:42;7.60;;;3.70;;
9597;SDS011;4837;50.890;4.724;2023-08-08T03:13:08;7.03;;;3.10;;
9597;SDS011;4837;50.890;4.724;2023-08-08T03:15:34;15.30;;;4.38;;
9597;SDS011;4837;50.890;4.724;2023-08-08T03:18:01;9.77;;;3.38;;
9597;SDS011;4837;50.890;4.724;2023-08-08T03:20:27;9.63;;;3.28;;
9597;SDS011;4837;50.890;4.724;2023-08-08T03:22:53;12.68;;;3.78;;
9597;SDS011;4837;50.890;4.724;2023-08-08T03:25:19;10.48;;;3.67;;
9597;SDS011;4837;50.890;4.724;2023-08-08T03:27:45;6.97;;;3.40;;
9597;SDS011;4837;50.890;4.724;2023-08-08T03:30:11;10.27;;;3.47;;
9597;SDS011;4837;50.890;4.724;2023-08-08T03:32:37;7.82;;;3.70;;
9597;SDS011;4837;50.890;4.724;2023-08-08T03:35:03;4.90;;;3.40;;
9597;SDS011;4837;50.890;4.724;2023-08-08T03:37:30;8.90;;;3.65;;
9597;SDS011;4837;50.890;4.724;2023-08-08T03:39:56;8.85;;;3.65;;
9597;SDS011;4837;50.890;4.724;2023-08-08T03:42:22;9.35;;;3.45;;
9597;SDS011;4837;50.890;4.724;2023-08-08T03:44:48;11.23;;;3.70;;
9597;SDS011;4837;50.890;4.724;2023-08-08T03:47:14;8.05;;;3.83;;
9597;SDS011;4837;50.890;4.724;2023-08-08T03:49:41;9.20;;;3.90;;
9597;SDS011;4837;50.890;4.724;2023-08-08T03:52:06;8.85;;;3.95;;
9597;SDS011;4837;50.890;4.724;2023-08-08T03:54:32;10.02;;;3.90;;
9597;SDS011;4837;50.890;4.724;2023-08-08T03:56:58;15.60;;;4.57;;
9597;SDS011;4837;50.890;4.724;2023-08-08T03:59:23;10.88;;;4.40;;
9597;SDS011;4837;50.890;4.724;2023-08-08T04:01:49;10.18;;;4.45;;
9597;SDS011;4837;50.890;4.724;2023-08-08T04:04:15;13.65;;;4.50;;
9597;SDS011;4837;50.890;4.724;2023-08-08T04:06:40;10.05;;;4.70;;
9597;SDS011;4837;50.890;4.724;2023-08-08T04:09:06;13.40;;;5.32;;
9597;SDS011;4837;50.890;4.724;2023-08-08T04:11:32;14.38;;;4.80;;
9597;SDS011;4837;50.890;4.724;2023-08-08T04:14:00;12.65;;;4.65;;
9597;SDS011;4837;50.890;4.724;2023-08-08T04:16:26;11.80;;;5.28;;
9597;SDS011;4837;50.890;4.724;2023-08-08T04:18:52;12.45;;;5.20;;
9597;SDS011;4837;50.890;4.724;2023-08-08T04:21:18;12.40;;;5.15;;
9597;SDS011;4837;50.890;4.724;2023-08-08T04:23:44;12.60;;;5.90;;
9597;SDS011;4837;50.890;4.724;2023-08-08T04:26:10;13.00;;;5.25;;
9597;SDS011;4837;50.890;4.724;2023-08-08T04:28:36;14.10;;;6.32;;
9597;SDS011;4837;50.890;4.724;2023-08-08T04:31:02;9.35;;;5.03;;
9597;SDS011;4837;50.890;4.724;2023-08-08T04:33:28;10.98;;;5.53;;
9597;SDS011;4837;50.890;4.724;2023-08-08T04:35:54;9.77;;;4.80;;
9597;SDS011;4837;50.890;4.724;2023-08-08T04:38:20;12.00;;;5.30;;
9597;SDS011;4837;50.890;4.724;2023-08-08T04:40:46;14.63;;;5.78;;
9597;SDS011;4837;50.890;4.724;2023-08-08T04:43:11;11.70;;;5.38;;
9597;SDS011;4837;50.890;4.724;2023-08-08T04:45:37;15.30;;;5.88;;
9597;SDS011;4837;50.890;4.724;2023-08-08T04:48:03;16.52;;;5.70;;
9597;SDS011;4837;50.890;4.724;2023-08-08T04:50:29;11.02;;;5.53;;
9597;SDS011;4837;50.890;4.724;2023-08-08T04:52:54;15.15;;;5.28;;
9597;SDS011;4837;50.890;4.724;2023-08-08T04:55:21;13.40;;;5.75;;
9597;SDS011;4837;50.890;4.724;2023-08-08T04:57:46;11.95;;;5.43;;
9597;SDS011;4837;50.890;4.724;2023-08-08T05:00:13;9.93;;;5.38;;
9597;SDS011;4837;50.890;4.724;2023-08-08T05:02:39;11.98;;;5.15;;
9597;SDS011;4837;50.890;4.724;2023-08-08T05:05:06;12.40;;;5.18;;
9597;SDS011;4837;50.890;4.724;2023-08-08T05:07:32;10.98;;;4.68;;
9597;SDS011;4837;50.890;4.724;2023-08-08T05:10:01;12.82;;;4.72;;
9597;SDS011;4837;50.890;4.724;2023-08-08T05:12:27;13.50;;;5.30;;
9597;SDS011;4837;50.890;4.724;2023-08-08T05:14:53;14.55;;;5.00;;
9597;SDS011;4837;50.890;4.724;2023-08-08T05:17:19;12.48;;;4.55;;
9597;SDS011;4837;50.890;4.724;2023-08-08T05:19:45;11.52;;;4.18;;
9597;SDS011;4837;50.890;4.724;2023-08-08T05:22:11;12.13;;;4.88;;
9597;SDS011;4837;50.890;4.724;2023-08-08T05:24:37;12.82;;;4.53;;
9597;SDS011;4837;50.890;4.724;2023-08-08T05:27:02;10.43;;;4.22;;
9597;SDS011;4837;50.890;4.724;2023-08-08T05:29:29;12.68;;;3.92;;
9597;SDS011;4837;50.890;4.724;2023-08-08T05:31:54;14.02;;;4.55;;
9597;SDS011;4837;50.890;4.724;2023-08-08T05:34:21;13.32;;;3.90;;
9597;SDS011;4837;50.890;4.724;2023-08-08T05:36:48;13.70;;;5.10;;
9597;SDS011;4837;50.890;4.724;2023-08-08T05:39:14;11.15;;;4.05;;
9597;SDS011;4837;50.890;4.724;2023-08-08T05:41:40;11.93;;;4.18;;
9597;SDS011;4837;50.890;4.724;2023-08-08T05:44:05;15.98;;;4.20;;
9597;SDS011;4837;50.890;4.724;2023-08-08T05:46:31;11.10;;;3.80;;
9597;SDS011;4837;50.890;4.724;2023-08-08T05:48:57;13.85;;;3.67;;
9597;SDS011;4837;50.890;4.724;2023-08-08T05:51:22;10.73;;;3.85;;
9597;SDS011;4837;50.890;4.724;2023-08-08T05:53:48;10.82;;;3.75;;
9597;SDS011;4837;50.890;4.724;2023-08-08T05:56:14;8.82;;;3.50;;
9597;SDS011;4837;50.890;4.724;2023-08-08T05:58:40;7.70;;;3.00;;
9597;SDS011;4837;50.890;4.724;2023-08-08T06:01:05;9.05;;;3.30;;
9597;SDS011;4837;50.890;4.724;2023-08-08T06:03:34;7.70;;;3.17;;
9597;SDS011;4837;50.890;4.724;2023-08-08T06:06:00;7.90;;;3.45;;
9597;SDS011;4837;50.890;4.724;2023-08-08T06:08:26;8.20;;;3.40;;
9597;SDS011;4837;50.890;4.724;2023-08-08T06:10:52;8.82;;;3.10;;
9597;SDS011;4837;50.890;4.724;2023-08-08T06:13:19;9.25;;;3.40;;
9597;SDS011;4837;50.890;4.724;2023-08-08T06:15:46;10.55;;;3.50;;
9597;SDS011;4837;50.890;4.724;2023-08-08T06:18:13;11.68;;;4.00;;
9597;SDS011;4837;50.890;4.724;2023-08-08T06:20:42;10.98;;;3.72;;
9597;SDS011;4837;50.890;4.724;2023-08-08T06:23:08;10.50;;;3.78;;
9597;SDS011;4837;50.890;4.724;2023-08-08T06:25:33;15.98;;;3.97;;
9597;SDS011;4837;50.890;4.724;2023-08-08T06:27:59;10.13;;;3.80;;
9597;SDS011;4837;50.890;4.724;2023-08-08T06:30:25;10.18;;;3.63;;
9597;SDS011;4837;50.890;4.724;2023-08-08T06:32:51;8.60;;;3.17;;
9597;SDS011;4837;50.890;4.724;2023-08-08T06:35:16;8.25;;;3.25;;
9597;SDS011;4837;50.890;4.724;2023-08-08T06:37:43;12.05;;;3.20;;
9597;SDS011;4837;50.890;4.724;2023-08-08T06:40:09;8.13;;;3.10;;
9597;SDS011;4837;50.890;4.724;2023-08-08T06:42:36;7.65;;;2.80;;
9597;SDS011;4837;50.890;4.724;2023-08-08T06:45:02;9.45;;;2.85;;
9597;SDS011;4837;50.890;4.724;2023-08-08T06:47:28;5.03;;;2.20;;
9597;SDS011;4837;50.890;4.724;2023-08-08T06:49:53;9.35;;;2.53;;
9597;SDS011;4837;50.890;4.724;2023-08-08T06:52:20;9.65;;;3.30;;
9597;SDS011;4837;50.890;4.724;2023-08-08T06:54:46;6.53;;;2.45;;
9597;SDS011;4837;50.890;4.724;2023-08-08T06:57:12;7.68;;;3.10;;
9597;SDS011;4837;50.890;4.724;2023-08-08T06:59:38;7.82;;;3.03;;
9597;SDS011;4837;50.890;4.724;2023-08-08T07:02:04;6.80;;;3.20;;
9597;SDS011;4837;50.890;4.724;2023-08-08T07:04:30;8.73;;;2.92;;
9597;SDS011;4837;50.890;4.724;2023-08-08T07:06:56;5.88;;;2.47;;
9597;SDS011;4837;50.890;4.724;2023-08-08T07:09:23;5.85;;;2.80;;
9597;SDS011;4837;50.890;4.724;2023-08-08T07:11:49;6.22;;;2.25;;
9597;SDS011;4837;50.890;4.724;2023-08-08T07:14:15;8.80;;;3.33;;
9597;SDS011;4837;50.890;4.724;2023-08-08T07:16:41;5.63;;;2.30;;
9597;SDS011;4837;50.890;4.724;2023-08-08T07:19:06;7.82;;;2.60;;
9597;SDS011;4837;50.890;4.724;2023-08-08T07:21:32;7.53;;;2.97;;
9597;SDS011;4837;50.890;4.724;2023-08-08T07:23:58;10.38;;;3.17;;
9597;SDS011;4837;50.890;4.724;2023-08-08T07:26:24;8.90;;;2.30;;
9597;SDS011;4837;50.890;4.724;2023-08-08T07:28:49;7.47;;;2.40;;
9597;SDS011;4837;50.890;4.724;2023-08-08T07:31:15;9.02;;;3.47;;
9597;SDS011;4837;50.890;4.724;2023-08-08T07:33:41;7.82;;;2.10;;
9597;SDS011;4837;50.890;4.724;2023-08-08T07:36:07;7.45;;;2.47;;
9597;SDS011;4837;50.890;4.724;2023-08-08T07:38:32;5.53;;;2.72;;
9597;SDS011;4837;50.890;4.724;2023-08-08T07:40:58;7.03;;;2.88;;
9597;SDS011;4837;50.890;4.724;2023-08-08T07:43:24;8.57;;;2.40;;
9597;SDS011;4837;50.890;4.724;2023-08-08T07:45:49;7.88;;;2.85;;
9597;SDS011;4837;50.890;4.724;2023-08-08T07:48:15;8.40;;;2.63;;
9597;SDS011;4837;50.890;4.724;2023-08-08T07:50:41;8.80;;;2.95;;
9597;SDS011;4837;50.890;4.724;2023-08-08T07:53:07;7.30;;;2.92;;
9597;SDS011;4837;50.890;4.724;2023-08-08T07:55:32;9.57;;;3.05;;
9597;SDS011;4837;50.890;4.724;2023-08-08T07:57:58;9.75;;;3.55;;
9597;SDS011;4837;50.890;4.724;2023-08-08T08:00:24;7.78;;;3.25;;
9597;SDS011;4837;50.890;4.724;2023-08-08T08:02:51;8.75;;;3.05;;
9597;SDS011;4837;50.890;4.724;2023-08-08T08:05:17;5.82;;;3.00;;
9597;SDS011;4837;50.890;4.724;2023-08-08T08:07:43;7.18;;;3.00;;
9597;SDS011;4837;50.890;4.724;2023-08-08T08:10:10;8.77;;;3.05;;
9597;SDS011;4837;50.890;4.724;2023-08-08T08:12:38;6.95;;;2.58;;
9597;SDS011;4837;50.890;4.724;2023-08-08T08:15:06;8.93;;;3.00;;
9597;SDS011;4837;50.890;4.724;2023-08-08T08:17:33;6.82;;;3.03;;
9597;SDS011;4837;50.890;4.724;2023-08-08T08:19:58;8.05;;;2.95;;
9597;SDS011;4837;50.890;4.724;2023-08-08T08:22:24;7.50;;;3.58;;
9597;SDS011;4837;50.890;4.724;2023-08-08T08:24:50;8.68;;;3.13;;
9597;SDS011;4837;50.890;4.724;2023-08-08T08:27:16;8.48;;;3.55;;
9597;SDS011;4837;50.890;4.724;2023-08-08T08:29:43;5.43;;;2.90;;
9597;SDS011;4837;50.890;4.724;2023-08-08T08:32:08;8.05;;;3.35;;
9597;SDS011;4837;50.890;4.724;2023-08-08T08:34:34;7.82;;;3.30;;
9597;SDS011;4837;50.890;4.724;2023-08-08T08:37:00;8.60;;;3.30;;
9597;SDS011;4837;50.890;4.724;2023-08-08T08:39:26;6.57;;;3.38;;
9597;SDS011;4837;50.890;4.724;2023-08-08T08:41:54;7.10;;;3.42;;
9597;SDS011;4837;50.890;4.724;2023-08-08T08:44:26;10.48;;;3.22;;
9597;SDS011;4837;50.890;4.724;2023-08-08T08:46:54;7.63;;;3.50;;
9597;SDS011;4837;50.890;4.724;2023-08-08T08:49:21;10.02;;;3.92;;
9597;SDS011;4837;50.890;4.724;2023-08-08T08:51:47;13.20;;;3.80;;
9597;SDS011;4837;50.890;4.724;2023-08-08T08:54:13;6.65;;;2.70;;
9597;SDS011;4837;50.890;4.724;2023-08-08T08:56:40;8.65;;;2.97;;
9597;SDS011;4837;50.890;4.724;2023-08-08T08:59:07;6.18;;;3.00;;
9597;SDS011;4837;50.890;4.724;2023-08-08T09:01:33;6.75;;;3.08;;
9597;SDS011;4837;50.890;4.724;2023-08-08T09:03:58;10.40;;;3.28;;
9597;SDS011;4837;50.890;4.724;2023-08-08T09:06:25;6.93;;;2.70;;
9597;SDS011;4837;50.890;4.724;2023-08-08T09:08:53;9.65;;;2.67;;
9597;SDS011;4837;50.890;4.724;2023-08-08T09:11:18;6.35;;;2.58;;
9597;SDS011;4837;50.890;4.724;2023-08-08T09:13:44;9.40;;;2.90;;
9597;SDS011;4837;50.890;4.724;2023-08-08T09:16:10;4.43;;;2.40;;
9597;SDS011;4837;50.890;4.724;2023-08-08T09:18:37;6.20;;;3.03;;
9597;SDS011;4837;50.890;4.724;2023-08-08T09:21:06;6.88;;;3.00;;
9597;SDS011;4837;50.890;4.724;2023-08-08T09:23:32;8.63;;;3.08;;
9597;SDS011;4837;50.890;4.724;2023-08-08T09:25:58;5.38;;;2.67;;
9597;SDS011;4837;50.890;4.724;2023-08-08T09:28:24;5.95;;;2.60;;
9597;SDS011;4837;50.890;4.724;2023-08-08T09:30:50;6.40;;;2.92;;
9597;SDS011;4837;50.890;4.724;2023-08-08T09:33:17;6.10;;;2.78;;
9597;SDS011;4837;50.890;4.724;2023-08-08T09:35:43;8.50;;;2.70;;
9597;SDS011;4837;50.890;4.724;2023-08-08T09:38:09;6.97;;;2.50;;
9597;SDS011;4837;50.890;4.724;2023-08-08T09:40:35;7.05;;;2.63;;
9597;SDS011;4837;50.890;4.724;2023-08-08T09:43:01;6.97;;;2.67;;
9597;SDS011;4837;50.890;4.724;2023-08-08T09:45:34;6.53;;;2.28;;
9597;SDS011;4837;50.890;4.724;2023-08-08T09:48:05;5.53;;;2.42;;
9597;SDS011;4837;50.890;4.724;2023-08-08T09:50:32;7.65;;;2.70;;
9597;SDS011;4837;50.890;4.724;2023-08-08T09:52:59;7.57;;;2.85;;
9597;SDS011;4837;50.890;4.724;2023-08-08T09:55:26;8.32;;;2.42;;
9597;SDS011;4837;50.890;4.724;2023-08-08T09:57:54;7.47;;;2.83;;
9597;SDS011;4837;50.890;4.724;2023-08-08T10:00:20;8.40;;;2.70;;
9597;SDS011;4837;50.890;4.724;2023-08-08T10:02:47;6.07;;;2.70;;
9597;SDS011;4837;50.890;4.724;2023-08-08T10:05:13;6.07;;;2.30;;
9597;SDS011;4837;50.890;4.724;2023-08-08T10:07:40;7.35;;;2.53;;
9597;SDS011;4837;50.890;4.724;2023-08-08T10:10:07;5.43;;;2.40;;
9597;SDS011;4837;50.890;4.724;2023-08-08T10:12:38;6.85;;;2.38;;
9597;SDS011;4837;50.890;4.724;2023-08-08T10:15:07;5.78;;;2.40;;
9597;SDS011;4837;50.890;4.724;2023-08-08T10:17:35;5.55;;;2.38;;
9597;SDS011;4837;50.890;4.724;2023-08-08T10:20:02;6.45;;;2.53;;
9597;SDS011;4837;50.890;4.724;2023-08-08T10:22:36;4.80;;;2.45;;
9597;SDS011;4837;50.890;4.724;2023-08-08T10:25:04;6.80;;;2.40;;
9597;SDS011;4837;50.890;4.724;2023-08-08T10:27:32;7.03;;;2.05;;
9597;SDS011;4837;50.890;4.724;2023-08-08T10:30:03;4.28;;;2.40;;
9597;SDS011;4837;50.890;4.724;2023-08-08T10:33:05;7.55;;;2.78;;
9597;SDS011;4837;50.890;4.724;2023-08-08T10:35:34;4.78;;;2.00;;
9597;SDS011;4837;50.890;4.724;2023-08-08T10:38:07;5.03;;;2.30;;
9597;SDS011;4837;50.890;4.724;2023-08-08T10:40:33;5.28;;;2.00;;
9597;SDS011;4837;50.890;4.724;2023-08-08T10:42:59;4.22;;;2.10;;
9597;SDS011;4837;50.890;4.724;2023-08-08T10:45:34;5.72;;;2.25;;
9597;SDS011;4837;50.890;4.724;2023-08-08T10:48:07;3.05;;;2.20;;
9597;SDS011;4837;50.890;4.724;2023-08-08T10:50:33;4.07;;;2.22;;
9597;SDS011;4837;50.890;4.724;2023-08-08T10:53:04;5.63;;;2.33;;
9597;SDS011;4837;50.890;4.724;2023-08-08T10:55:35;4.70;;;2.40;;
9597;SDS011;4837;50.890;4.724;2023-08-08T10:58:09;3.88;;;1.98;;
9597;SDS011;4837;50.890;4.724;2023-08-08T11:00:38;4.32;;;2.50;;
9597;SDS011;4837;50.890;4.724;2023-08-08T11:03:05;5.53;;;2.50;;
9597;SDS011;4837;50.890;4.724;2023-08-08T11:05:31;6.03;;;2.00;;
9597;SDS011;4837;50.890;4.724;2023-08-08T11:08:01;3.80;;;2.22;;
9597;SDS011;4837;50.890;4.724;2023-08-08T11:10:29;4.25;;;2.40;;
9597;SDS011;4837;50.890;4.724;2023-08-08T11:13:01;4.32;;;2.20;;
9597;SDS011;4837;50.890;4.724;2023-08-08T11:15:31;6.05;;;2.38;;
9597;SDS011;4837;50.890;4.724;2023-08-08T11:17:58;4.00;;;2.17;;
9597;SDS011;4837;50.890;4.724;2023-08-08T11:20:25;4.07;;;2.55;;
9597;SDS011;4837;50.890;4.724;2023-08-08T11:22:55;5.85;;;2.28;;
9597;SDS011;4837;50.890;4.724;2023-08-08T11:25:22;4.15;;;2.53;;
9597;SDS011;4837;50.890;4.724;2023-08-08T11:27:51;5.38;;;2.35;;
9597;SDS011;4837;50.890;4.724;2023-08-08T11:30:18;3.65;;;2.05;;
9597;SDS011;4837;50.890;4.724;2023-08-08T11:32:45;4.05;;;2.05;;
9597;SDS011;4837;50.890;4.724;2023-08-08T11:35:12;3.15;;;1.70;;
9597;SDS011;4837;50.890;4.724;2023-08-08T11:37:41;3.05;;;1.85;;
9597;SDS011;4837;50.890;4.724;2023-08-08T11:40:07;4.40;;;1.90;;
9597;SDS011;4837;50.890;4.724;2023-08-08T11:42:34;6.05;;;2.10;;
9597;SDS011;4837;50.890;4.724;2023-08-08T11:45:00;3.65;;;1.90;;
9597;SDS011;4837;50.890;4.724;2023-08-08T11:47:26;4.35;;;1.65;;
9597;SDS011;4837;50.890;4.724;2023-08-08T11:49:53;2.67;;;1.63;;
9597;SDS011;4837;50.890;4.724;2023-08-08T11:52:19;3.75;;;1.67;;
9597;SDS011;4837;50.890;4.724;2023-08-08T11:54:50;3.67;;;1.70;;
9597;SDS011;4837;50.890;4.724;2023-08-08T11:57:17;4.88;;;1.90;;
9597;SDS011;4837;50.890;4.724;2023-08-08T11:59:43;3.50;;;1.98;;
9597;SDS011;4837;50.890;4.724;2023-08-08T12:02:09;3.33;;;1.70;;
9597;SDS011;4837;50.890;4.724;2023-08-08T12:04:35;5.15;;;2.10;;
9597;SDS011;4837;50.890;4.724;2023-08-08T12:07:01;4.65;;;1.92;;
9597;SDS011;4837;50.890;4.724;2023-08-08T12:09:31;3.33;;;1.50;;
9597;SDS011;4837;50.890;4.724;2023-08-08T12:12:01;4.53;;;1.90;;
9597;SDS011;4837;50.890;4.724;2023-08-08T12:14:27;5.38;;;2.13;;
9597;SDS011;4837;50.890;4.724;2023-08-08T12:16:54;2.85;;;1.75;;
9597;SDS011;4837;50.890;4.724;2023-08-08T12:19:23;3.38;;;1.92;;
9597;SDS011;4837;50.890;4.724;2023-08-08T12:21:51;3.47;;;2.38;;
9597;SDS011;4837;50.890;4.724;2023-08-08T12:24:20;2.50;;;1.63;;
9597;SDS011;4837;50.890;4.724;2023-08-08T12:26:45;3.17;;;1.38;;
9597;SDS011;4837;50.890;4.724;2023-08-08T12:29:11;2.55;;;1.52;;
9597;SDS011;4837;50.890;4.724;2023-08-08T12:31:38;3.45;;;1.67;;
9597;SDS011;4837;50.890;4.724;2023-08-08T12:34:04;2.45;;;1.60;;
9597;SDS011;4837;50.890;4.724;2023-08-08T12:36:30;3.97;;;1.60;;
9597;SDS011;4837;50.890;4.724;2023-08-08T12:38:56;3.65;;;1.67;;
9597;SDS011;4837;50.890;4.724;2023-08-08T12:41:22;3.30;;;1.60;;
9597;SDS011;4837;50.890;4.724;2023-08-08T12:43:51;2.92;;;1.40;;
9597;SDS011;4837;50.890;4.724;2023-08-08T12:46:17;3.60;;;1.80;;
9597;SDS011;4837;50.890;4.724;2023-08-08T12:48:43;5.35;;;1.90;;
9597;SDS011;4837;50.890;4.724;2023-08-08T12:51:09;3.67;;;2.03;;
9597;SDS011;4837;50.890;4.724;2023-08-08T12:53:35;2.40;;;1.70;;
9597;SDS011;4837;50.890;4.724;2023-08-08T12:56:01;4.50;;;1.75;;
9597;SDS011;4837;50.890;4.724;2023-08-08T12:58:27;3.00;;;1.90;;
9597;SDS011;4837;50.890;4.724;2023-08-08T13:00:53;3.50;;;1.50;;
9597;SDS011;4837;50.890;4.724;2023-08-08T13:03:18;2.80;;;1.70;;
9597;SDS011;4837;50.890;4.724;2023-08-08T13:05:45;4.43;;;2.20;;
9597;SDS011;4837;50.890;4.724;2023-08-08T13:08:11;2.83;;;1.40;;
9597;SDS011;4837;50.890;4.724;2023-08-08T13:10:38;2.35;;;1.48;;
9597;SDS011;4837;50.890;4.724;2023-08-08T13:13:05;3.28;;;1.70;;
9597;SDS011;4837;50.890;4.724;2023-08-08T13:15:30;4.45;;;1.70;;
9597;SDS011;4837;50.890;4.724;2023-08-08T13:17:56;3.28;;;1.65;;
9597;SDS011;4837;50.890;4.724;2023-08-08T13:20:24;3.58;;;1.52;;
9597;SDS011;4837;50.890;4.724;2023-08-08T13:22:50;3.47;;;1.88;;
9597;SDS011;4837;50.890;4.724;2023-08-08T13:25:17;1.55;;;1.35;;
9597;SDS011;4837;50.890;4.724;2023-08-08T13:27:46;2.75;;;1.80;;
9597;SDS011;4837;50.890;4.724;2023-08-08T13:30:12;2.45;;;1.38;;
9597;SDS011;4837;50.890;4.724;2023-08-08T13:32:41;3.55;;;1.83;;
9597;SDS011;4837;50.890;4.724;2023-08-08T13:35:06;3.80;;;1.83;;
9597;SDS011;4837;50.890;4.724;2023-08-08T13:37:32;2.88;;;1.52;;
9597;SDS011;4837;50.890;4.724;2023-08-08T13:39:58;3.30;;;1.60;;
9597;SDS011;4837;50.890;4.724;2023-08-08T13:42:23;4.57;;;2.10;;
9597;SDS011;4837;50.890;4.724;2023-08-08T13:44:49;2.80;;;1.58;;
9597;SDS011;4837;50.890;4.724;2023-08-08T13:47:15;2.40;;;1.70;;
9597;SDS011;4837;50.890;4.724;2023-08-08T13:49:42;2.58;;;1.58;;
9597;SDS011;4837;50.890;4.724;2023-08-08T13:52:08;3.58;;;1.70;;
9597;SDS011;4837;50.890;4.724;2023-08-08T13:54:34;3.33;;;1.60;;
9597;SDS011;4837;50.890;4.724;2023-08-08T13:57:00;3.38;;;1.33;;
9597;SDS011;4837;50.890;4.724;2023-08-08T13:59:26;2.08;;;1.55;;
9597;SDS011;4837;50.890;4.724;2023-08-08T14:01:52;4.18;;;1.90;;
9597;SDS011;4837;50.890;4.724;2023-08-08T14:04:17;2.60;;;1.52;;
9597;SDS011;4837;50.890;4.724;2023-08-08T14:06:43;2.53;;;1.80;;
9597;SDS011;4837;50.890;4.724;2023-08-08T14:09:10;5.65;;;2.10;;
9597;SDS011;4837;50.890;4.724;2023-08-08T14:11:36;5.60;;;2.10;;
9597;SDS011;4837;50.890;4.724;2023-08-08T14:14:02;2.15;;;1.65;;
9597;SDS011;4837;50.890;4.724;2023-08-08T14:16:28;2.72;;;1.75;;
9597;SDS011;4837;50.890;4.724;2023-08-08T14:18:54;4.35;;;2.03;;
9597;SDS011;4837;50.890;4.724;2023-08-08T14:21:19;3.25;;;1.92;;
9597;SDS011;4837;50.890;4.724;2023-08-08T14:23:45;4.68;;;1.70;;
9597;SDS011;4837;50.890;4.724;2023-08-08T14:26:12;2.75;;;1.50;;
9597;SDS011;4837;50.890;4.724;2023-08-08T14:28:38;3.15;;;1.33;;
9597;SDS011;4837;50.890;4.724;2023-08-08T14:31:03;3.42;;;1.55;;
9597;SDS011;4837;50.890;4.724;2023-08-08T14:33:31;3.45;;;1.60;;
9597;SDS011;4837;50.890;4.724;2023-08-08T14:35:57;3.05;;;1.65;;
9597;SDS011;4837;50.890;4.724;2023-08-08T14:38:23;2.78;;;1.60;;
9597;SDS011;4837;50.890;4.724;2023-08-08T14:40:50;2.80;;;1.98;;
9597;SDS011;4837;50.890;4.724;2023-08-08T14:43:18;2.35;;;1.90;;
9597;SDS011;4837;50.890;4.724;2023-08-08T14:45:43;2.85;;;1.40;;
9597;SDS011;4837;50.890;4.724;2023-08-08T14:48:09;2.22;;;1.50;;
9597;SDS011;4837;50.890;4.724;2023-08-08T14:50:35;2.53;;;1.35;;
9597;SDS011;4837;50.890;4.724;2023-08-08T14:53:03;2.20;;;1.52;;
9597;SDS011;4837;50.890;4.724;2023-08-08T14:55:29;2.47;;;1.60;;
9597;SDS011;4837;50.890;4.724;2023-08-08T14:57:54;2.25;;;1.80;;
9597;SDS011;4837;50.890;4.724;2023-08-08T15:00:21;2.60;;;1.60;;
9597;SDS011;4837;50.890;4.724;2023-08-08T15:02:47;2.10;;;1.45;;
9597;SDS011;4837;50.890;4.724;2023-08-08T15:05:12;4.22;;;1.30;;
9597;SDS011;4837;50.890;4.724;2023-08-08T15:07:38;3.08;;;1.75;;
9597;SDS011;4837;50.890;4.724;2023-08-08T15:10:04;2.47;;;1.60;;
9597;SDS011;4837;50.890;4.724;2023-08-08T15:12:30;2.28;;;1.40;;